Waynesville, Missouri
Current Conditions -  °F | °C
As of 10:28 AM on Thursday 29 Jan 2015 (Local Time) from KTBN Reporting Station
Overcast Overcast  
Wind Chill: 30°   Ceiling: 1500
Heat Index: 39°   Visibility: 10mi
Dew Point: 32°   Wind: 17mph
Humidity: 75%   Direction: 330°NNW
Pressure: 30.2"   Gusts: 26mph
Location:  37.83°N, 92.2°W
Report Text: KTBN 291628Z AUTO 33015G23KT 10SM OVC015 04/00 A3020 RMK AO2 PRESRR
Loading
Personal Weather Stations






























Interactive Weather Map New forecast layout! Learn more

10-Day Weather Forecast

Advertisements
Track Severe Weather on mobile